Time;durP1;ratioP1;P1;durP2;ratioP2;P2;SDS_P1;SDS_P2;PMS_P1;PMS_P2;Temp;Humidity;BMP_temperature;BMP_pressure;BME280_temperature;BME280_humidity;BME280_pressure;Samples;Min_cycle;Max_cycle;Signal;HPM_P1;HPM_P2
2021/01/22 00:02:02;;;;;;;;;15.50;12.00;;;;;14.22;43.78;97200.97;4822854;28;104381;-78
2021/01/22 00:04:29;;;;;;;;;16.25;12.75;;;;;14.21;44.01;97197.41;4824313;28;105318;-78
2021/01/22 00:06:56;;;;;;;;;14.25;11.75;;;;;14.19;44.10;97188.69;4831227;28;102858;-78
2021/01/22 00:09:22;;;;;;;;;13.50;11.75;;;;;14.19;43.76;97188.69;4825867;28;103137;-78
2021/01/22 00:11:49;;;;;;;;;12.00;8.75;;;;;14.17;44.79;97188.13;4826016;28;108822;-78
2021/01/22 00:14:16;;;;;;;;;16.75;12.50;;;;;14.16;44.57;97178.34;4827597;28;102770;-78
2021/01/22 00:16:42;;;;;;;;;10.75;10.00;;;;;14.15;44.00;97182.13;4824260;28;103165;-78
2021/01/22 00:19:09;;;;;;;;;9.50;9.25;;;;;14.11;44.07;97170.13;4820042;28;102969;-78
2021/01/22 00:21:37;;;;;;;;;12.25;10.25;;;;;14.13;43.77;97170.72;4819112;28;104714;-78
2021/01/22 00:24:04;;;;;;;;;12.75;11.00;;;;;14.13;44.64;97173.44;4823552;28;103275;-78
2021/01/22 00:26:31;;;;;;;;;10.25;7.75;;;;;14.12;43.89;97171.78;4826301;28;103736;-78
2021/01/22 00:28:58;;;;;;;;;7.50;6.00;;;;;14.11;43.77;97170.13;4824442;28;104989;-79
2021/01/22 00:31:24;;;;;;;;;9.00;7.25;;;;;14.09;44.12;97172.31;4827261;28;103995;-78
2021/01/22 00:33:51;;;;;;;;;12.50;9.00;;;;;14.10;44.19;97170.38;4831122;28;103918;-78
2021/01/22 00:36:18;;;;;;;;;11.00;9.00;;;;;14.09;44.29;97166.06;4826517;28;103891;-78
2021/01/22 00:38:44;;;;;;;;;13.75;9.25;;;;;14.07;44.34;97166.28;4828367;28;103019;-78
2021/01/22 00:41:11;;;;;;;;;10.00;9.25;;;;;14.07;44.40;97157.31;4823582;28;104229;-78
2021/01/22 00:43:38;;;;;;;;;7.25;7.25;;;;;14.06;44.49;97161.94;4822569;28;102989;-78
2021/01/22 00:46:04;;;;;;;;;10.50;9.50;;;;;14.04;44.03;97155.94;4827493;28;103137;-78
2021/01/22 00:48:37;;;;;;;;;10.25;8.00;;;;;14.05;44.32;97148.63;4818318;28;103368;-78
2021/01/22 00:51:04;;;;;;;;;8.00;7.75;;;;;14.03;43.99;97148.88;4822889;28;104065;-78
2021/01/22 00:53:31;;;;;;;;;11.75;9.00;;;;;14.03;44.33;97150.75;4824825;28;102793;-78
2021/01/22 00:55:57;;;;;;;;;13.75;12.75;;;;;14.01;44.01;97151.00;4823907;28;102782;-79
2021/01/22 00:58:24;;;;;;;;;11.00;10.00;;;;;14.01;43.49;97153.72;4833580;28;103095;-78
2021/01/22 01:00:51;;;;;;;;;11.00;10.00;;;;;14.00;44.63;97143.97;4827368;28;104016;-78
2021/01/22 01:03:18;;;;;;;;;8.50;7.00;;;;;13.99;44.20;97145.03;4825724;28;103025;-78
2021/01/22 01:05:44;;;;;;;;;8.00;7.75;;;;;13.98;44.62;97132.50;4828871;28;102997;-78
2021/01/22 01:08:11;;;;;;;;;10.75;10.00;;;;;13.98;43.81;97128.97;4822595;28;104892;-78
2021/01/22 01:10:38;;;;;;;;;8.75;7.25;;;;;13.97;43.48;97116.47;4823844;28;104539;-78
2021/01/22 01:13:04;;;;;;;;;10.75;9.25;;;;;13.96;43.64;97106.69;4830868;28;103006;-78
2021/01/22 01:15:31;;;;;;;;;10.25;8.75;;;;;13.94;43.85;97101.50;4824575;28;103347;-78
2021/01/22 01:17:58;;;;;;;;;9.50;7.00;;;;;13.95;44.54;97108.59;4826478;28;104108;-78
2021/01/22 01:20:25;;;;;;;;;10.75;6.75;;;;;13.94;43.93;97098.78;4826884;28;104251;-78
2021/01/22 01:22:51;;;;;;;;;9.50;7.00;;;;;13.93;44.26;97101.75;4823592;28;104050;-78
2021/01/22 01:25:18;;;;;;;;;7.00;7.00;;;;;13.92;44.07;97086.53;4826460;28;102792;-78
2021/01/22 01:27:47;;;;;;;;;7.00;6.25;;;;;13.90;43.97;97094.94;4829992;28;102939;-78
2021/01/22 01:30:14;;;;;;;;;9.50;7.75;;;;;13.91;44.44;97084.91;4827225;28;104319;-78
2021/01/22 01:32:41;;;;;;;;;9.00;7.25;;;;;13.90;43.81;97086.81;4828391;28;102905;-78
2021/01/22 01:35:09;;;;;;;;;7.00;6.00;;;;;13.89;43.81;97087.06;4825739;28;103653;-78
2021/01/22 01:37:36;;;;;;;;;10.25;8.25;;;;;13.89;43.56;97079.72;4823996;28;103040;-78
2021/01/22 01:40:03;;;;;;;;;10.00;8.00;;;;;13.88;44.46;97079.97;4828488;28;104011;-78
2021/01/22 01:42:30;;;;;;;;;7.00;7.00;;;;;13.86;43.57;97063.94;4820614;28;103045;-78
2021/01/22 01:44:57;;;;;;;;;8.25;7.00;;;;;13.86;44.53;97063.94;4824825;28;102850;-78
2021/01/22 01:47:24;;;;;;;;;7.75;6.00;;;;;13.85;44.10;97056.88;4824702;28;102913;-78
2021/01/22 01:49:51;;;;;;;;;7.50;5.75;;;;;13.84;44.54;97044.34;4810943;28;104539;-78
2021/01/22 01:52:18;;;;;;;;;7.50;7.00;;;;;13.82;44.39;97041.88;4821059;28;102977;-78
2021/01/22 01:54:44;;;;;;;;;8.50;6.25;;;;;13.83;43.58;97048.13;4823663;28;104691;-78
2021/01/22 01:57:12;;;;;;;;;8.00;6.00;;;;;13.83;44.00;97042.72;4827999;28;104704;-78
2021/01/22 01:59:40;;;;;;;;;8.75;6.75;;;;;13.81;44.32;97029.41;4826080;28;104663;-78
2021/01/22 02:02:06;;;;;;;;;8.25;6.50;;;;;13.81;44.58;97034.03;4818529;28;103084;-78
2021/01/22 02:04:33;;;;;;;;;6.25;6.00;;;;;13.79;43.50;97023.41;4814173;28;103026;-78
2021/01/22 02:07:01;;;;;;;;;7.25;6.75;;;;;13.80;43.69;97029.66;4814164;28;104621;-78
2021/01/22 02:09:28;;;;;;;;;8.25;7.00;;;;;13.79;43.73;97036.97;4810911;28;105461;-79
2021/01/22 02:11:56;;;;;;;;;9.50;8.75;;;;;13.79;43.78;97036.97;4823034;28;102846;-80
2021/01/22 02:14:25;;;;;;;;;7.75;6.25;;;;;13.77;44.16;97031.00;4824779;28;102972;-78
2021/01/22 02:16:55;;;;;;;;;7.00;6.00;;;;;13.78;44.32;97023.66;4825229;28;102899;-79
2021/01/22 02:19:43;;;;;;;;;8.75;7.50;;;;;13.76;43.94;97018.50;4826017;28;111400;-82
2021/01/22 02:22:12;;;;;;;;;7.50;6.75;;;;;13.76;44.48;97012.25;4725359;28;103935;-78
2021/01/22 02:24:41;;;;;;;;;8.75;8.00;;;;;13.75;43.34;97003.28;4819502;28;103960;-78
2021/01/22 02:27:13;;;;;;;;;7.00;6.00;;;;;13.75;43.65;97006.00;4826888;28;102956;-78
2021/01/22 02:29:41;;;;;;;;;5.00;4.75;;;;;13.74;43.73;97003.53;4798593;28;104170;-78
2021/01/22 02:32:12;;;;;;;;;7.50;6.75;;;;;13.72;43.54;96998.38;4819455;28;103047;-78
2021/01/22 02:34:42;;;;;;;;;5.00;3.50;;;;;13.74;44.04;96996.19;4822931;28;104491;-78
2021/01/22 02:37:13;;;;;;;;;6.00;6.00;;;;;13.73;44.10;96991.03;4810961;28;103072;-78
2021/01/22 02:39:52;;;;;;;;;7.25;5.50;;;;;13.72;43.85;96978.53;4817330;28;103882;-78
2021/01/22 02:42:26;;;;;;;;;7.00;6.00;;;;;13.72;44.07;96986.69;4823257;28;102958;-78
2021/01/22 02:44:54;;;;;;;;;9.25;6.50;;;;;13.72;44.41;96978.53;4820754;28;102978;-78
2021/01/22 02:47:25;;;;;;;;;6.75;6.50;;;;;13.70;44.38;96976.06;4826560;28;103005;-78
2021/01/22 02:49:54;;;;;;;;;6.75;6.50;;;;;13.69;43.60;96968.16;4826305;28;108660;-78
2021/01/22 02:52:21;;;;;;;;;9.00;6.00;;;;;13.71;44.07;96974.16;4815118;28;105088;-78
2021/01/22 02:54:51;;;;;;;;;6.25;5.75;;;;;13.68;44.11;96967.38;4827868;28;102827;-78
2021/01/22 02:57:24;;;;;;;;;6.75;5.50;;;;;13.69;44.18;96954.59;4812193;28;104284;-78
2021/01/22 03:00:14;;;;;;;;;7.00;6.00;;;;;13.66;43.82;96971.41;4819258;28;107583;-78
2021/01/22 03:03:07;;;;;;;;;5.25;4.50;;;;;13.67;43.96;96967.63;4762214;28;102990;-78
2021/01/22 03:05:35;;;;;;;;;7.75;5.00;;;;;13.66;44.03;96982.28;4768299;28;104315;-78
2021/01/22 03:08:13;;;;;;;;;5.00;4.00;;;;;13.65;44.41;96967.88;4817176;28;103506;-78
2021/01/22 03:10:39;;;;;;;;;6.00;5.25;;;;;13.65;43.86;96970.59;4818491;28;104512;-78
2021/01/22 03:13:06;;;;;;;;;6.00;5.00;;;;;13.64;43.49;96976.31;4825968;28;102894;-78
2021/01/22 03:15:34;;;;;;;;;6.25;6.00;;;;;13.64;44.15;96968.16;4819371;28;106037;-78
2021/01/22 03:18:14;;;;;;;;;5.50;4.50;;;;;13.64;44.45;96976.31;4820547;28;103371;-78
2021/01/22 03:20:42;;;;;;;;;4.50;4.50;;;;;13.64;43.92;96981.72;4823256;28;104289;-78
2021/01/22 03:23:09;;;;;;;;;5.50;4.25;;;;;13.63;43.82;96982.81;4818832;28;104235;-78
2021/01/22 03:25:36;;;;;;;;;6.00;5.25;;;;;13.61;43.46;96980.34;4823732;28;104942;-78
2021/01/22 03:28:04;;;;;;;;;4.25;4.00;;;;;13.61;43.67;96968.66;4823612;28;102942;-78
2021/01/22 03:30:32;;;;;;;;;5.00;5.00;;;;;13.62;44.09;96962.16;4817412;28;104259;-78
2021/01/22 03:32:58;;;;;;;;;7.00;5.00;;;;;13.60;44.35;96961.59;4824668;28;102948;-78
2021/01/22 03:35:26;;;;;;;;;6.00;4.50;;;;;13.61;43.87;96957.78;4821901;28;104763;-78
2021/01/22 03:37:53;;;;;;;;;5.00;3.75;;;;;13.61;43.38;96960.50;4818515;28;102891;-78
2021/01/22 03:40:20;;;;;;;;;4.00;4.00;;;;;13.60;44.41;96956.97;4827707;28;103984;-78
2021/01/22 03:42:47;;;;;;;;;6.00;5.25;;;;;13.59;43.89;96949.91;4816556;28;102918;-78
2021/01/22 03:45:14;;;;;;;;;6.50;3.75;;;;;13.59;44.28;96949.09;4806782;28;102996;-78
2021/01/22 03:47:41;;;;;;;;;6.25;5.00;;;;;13.58;43.29;96953.72;4820833;28;103036;-78
2021/01/22 03:50:09;;;;;;;;;4.25;3.00;;;;;13.58;43.85;96939.31;4824318;28;104506;-78
2021/01/22 03:52:36;;;;;;;;;5.00;4.00;;;;;13.58;43.54;96942.03;4828991;28;102785;-78
2021/01/22 03:55:03;;;;;;;;;3.00;3.00;;;;;13.57;44.31;96946.63;4823316;28;104380;-78
2021/01/22 03:57:30;;;;;;;;;2.00;2.00;;;;;13.57;43.74;96937.66;4825915;28;103157;-78
2021/01/22 03:59:57;;;;;;;;;4.50;4.00;;;;;13.56;44.18;96936.84;4825742;28;104180;-78
2021/01/22 04:02:24;;;;;;;;;4.00;4.00;;;;;13.54;43.61;96935.47;4829177;28;104559;-78
2021/01/22 04:04:52;;;;;;;;;4.00;3.00;;;;;13.55;44.38;96926.25;4830614;28;102856;-78
2021/01/22 04:07:18;;;;;;;;;3.00;3.00;;;;;13.55;43.67;96915.41;4821087;28;103063;-78
2021/01/22 04:09:45;;;;;;;;;3.75;3.75;;;;;13.54;43.99;96913.75;4825273;28;104082;-78
2021/01/22 04:12:12;;;;;;;;;5.00;4.00;;;;;13.53;44.12;96917.53;4830565;28;102927;-78
2021/01/22 04:14:38;;;;;;;;;4.00;3.50;;;;;13.54;44.09;96913.75;4828171;28;103687;-78
2021/01/22 04:17:05;;;;;;;;;4.50;3.75;;;;;13.53;44.40;96914.84;4830098;28;102853;-78
2021/01/22 04:19:32;;;;;;;;;3.00;3.00;;;;;13.52;44.01;96905.03;4830701;28;104275;-78
2021/01/22 04:21:59;;;;;;;;;3.75;3.50;;;;;13.52;43.28;96905.03;4824145;28;104828;-78
2021/01/22 04:24:27;;;;;;;;;3.00;2.75;;;;;13.51;43.18;96887.94;4831019;28;104860;-78
2021/01/22 04:26:54;;;;;;;;;5.75;2.75;;;;;13.50;44.07;96891.75;4831598;28;102887;-78
2021/01/22 04:29:20;;;;;;;;;4.00;3.00;;;;;13.50;44.42;96888.22;4828947;28;105053;-78
2021/01/22 04:31:47;;;;;;;;;2.75;2.75;;;;;13.48;43.25;96884.94;4830993;28;105256;-78
2021/01/22 04:34:14;;;;;;;;;4.25;3.50;;;;;13.48;43.71;96885.75;4828330;28;102863;-78
2021/01/22 04:36:41;;;;;;;;;2.75;2.75;;;;;13.49;43.31;96878.41;4829092;28;102984;-78
2021/01/22 04:39:08;;;;;;;;;4.00;3.00;;;;;13.48;43.41;96899.31;4828031;28;104308;-78
2021/01/22 04:41:35;;;;;;;;;4.00;3.00;;;;;13.47;43.86;96889.53;4827939;28;102703;-78
2021/01/22 04:44:02;;;;;;;;;2.25;2.00;;;;;13.47;43.34;96881.38;4825196;28;102884;-78
2021/01/22 04:46:33;;;;;;;;;3.00;2.00;;;;;13.44;43.62;96873.78;4832653;28;104374;-78
2021/01/22 04:49:03;;;;;;;;;3.00;3.00;;;;;13.46;44.29;96877.06;4824780;28;104050;-78
2021/01/22 04:51:30;;;;;;;;;4.75;3.75;;;;;13.45;43.87;96871.88;4826955;28;102926;-78
2021/01/22 04:54:00;;;;;;;;;3.00;3.00;;;;;13.46;43.51;96862.66;4834501;28;102942;-78
2021/01/22 04:56:28;;;;;;;;;2.50;2.50;;;;;13.45;43.32;96867.28;4828953;28;103096;-78
2021/01/22 04:58:56;;;;;;;;;4.50;3.25;;;;;13.45;43.38;96861.03;4835565;28;108563;-78
2021/01/22 05:01:23;;;;;;;;;3.00;3.00;;;;;13.44;43.53;96859.38;4828461;28;102934;-78
2021/01/22 05:03:50;;;;;;;;;4.25;4.00;;;;;13.43;43.28;96852.31;4822478;28;103100;-78
2021/01/22 05:06:18;;;;;;;;;4.00;2.50;;;;;13.43;43.35;96844.16;4830832;28;102760;-78
2021/01/22 05:08:45;;;;;;;;;2.75;2.00;;;;;13.43;43.40;96846.88;4822517;28;103918;-78
2021/01/22 05:11:12;;;;;;;;;3.00;3.00;;;;;13.42;43.52;96850.69;4825843;28;103293;-78
2021/01/22 05:13:39;;;;;;;;;4.00;3.50;;;;;13.40;43.29;96850.94;4831394;28;102931;-78
2021/01/22 05:16:13;;;;;;;;;4.00;3.50;;;;;13.40;43.39;96848.22;4828072;28;103064;-78
2021/01/22 05:18:41;;;;;;;;;4.75;2.50;;;;;13.40;43.41;96846.34;4828886;28;104051;-80
2021/01/22 05:21:09;;;;;;;;;3.50;2.00;;;;;13.39;44.06;96841.97;4828781;28;102752;-79
2021/01/22 05:23:38;;;;;;;;;4.00;3.00;;;;;13.39;44.62;96833.84;4828215;28;103573;-79
2021/01/22 05:26:06;;;;;;;;;2.00;2.00;;;;;13.40;44.89;96843.63;4830783;28;102950;-79
2021/01/22 05:28:34;;;;;;;;;2.25;2.00;;;;;13.40;44.80;96838.19;4828679;28;104476;-79
2021/01/22 05:31:01;;;;;;;;;4.25;3.50;;;;;13.42;45.30;96839.84;4824241;28;103836;-79
2021/01/22 05:33:30;;;;;;;;;3.00;3.00;;;;;13.42;45.50;96834.41;4829631;28;102857;-79
2021/01/22 05:35:56;;;;;;;;;3.00;3.00;;;;;13.41;45.54;96825.44;4814284;28;103077;-79
2021/01/22 05:38:39;;;;;;;;;3.00;3.00;;;;;13.43;45.80;96819.72;4825924;28;104584;-79
2021/01/22 05:41:07;;;;;;;;;3.00;2.25;;;;;13.43;46.71;96836.84;4721677;28;104244;-79
2021/01/22 05:43:37;;;;;;;;;3.75;3.00;;;;;13.44;47.06;96838.47;4825684;28;102919;-79
2021/01/22 05:46:14;;;;;;;;;4.00;3.50;;;;;13.45;46.82;96828.44;4832641;28;102889;-79
2021/01/22 05:48:41;;;;;;;;;4.00;3.00;;;;;13.44;47.28;96815.94;4824819;28;104697;-79
2021/01/22 05:51:08;;;;;;;;;2.75;1.25;;;;;13.46;46.45;96819.22;4828212;28;102890;-79
2021/01/22 05:53:46;;;;;;;;;5.00;4.00;;;;;13.47;47.69;96820.84;4828097;28;102743;-79
2021/01/22 05:56:17;;;;;;;;;3.00;3.00;;;;;13.47;47.01;96821.66;4829337;28;103842;-79
2021/01/22 05:58:44;;;;;;;;;2.75;2.00;;;;;13.48;46.89;96822.47;4830064;28;104440;-79
2021/01/22 06:01:17;;;;;;;;;4.75;4.00;;;;;13.48;47.87;96826.00;4827755;28;104550;-79
2021/01/22 06:03:51;;;;;;;;;4.00;3.00;;;;;13.50;46.96;96828.47;4829157;28;102737;-79
2021/01/22 06:06:19;;;;;;;;;4.00;4.00;;;;;13.50;47.96;96839.34;4830368;28;103165;-79
2021/01/22 06:08:52;;;;;;;;;3.00;3.00;;;;;13.51;47.72;96827.41;4825588;28;103979;-79
2021/01/22 06:11:24;;;;;;;;;4.75;4.00;;;;;13.51;48.05;96827.41;4818759;28;102806;-79
2021/01/22 06:13:55;;;;;;;;;3.00;2.75;;;;;13.52;47.64;96826.28;4836228;28;103799;-79
2021/01/22 06:16:25;;;;;;;;;3.25;3.25;;;;;13.51;48.16;96817.34;4832556;28;103881;-79
2021/01/22 06:18:58;;;;;;;;;7.75;4.25;;;;;13.53;47.30;96819.78;4822135;28;104706;-78
2021/01/22 06:21:29;;;;;;;;;3.50;3.25;;;;;13.53;47.39;96819.78;4800278;28;105195;-79
2021/01/22 06:23:57;;;;;;;;;5.00;4.00;;;;;13.53;47.42;96828.75;4810116;28;102869;-79
2021/01/22 06:26:25;;;;;;;;;4.00;4.00;;;;;13.53;47.36;96823.31;4835998;28;103141;-79
2021/01/22 06:28:52;;;;;;;;;5.00;5.00;;;;;13.53;47.27;96807.03;4827729;28;104321;-79
2021/01/22 06:31:19;;;;;;;;;4.00;3.00;;;;;13.53;47.08;96815.19;4825680;28;102734;-79
2021/01/22 06:33:47;;;;;;;;;4.00;3.00;;;;;13.51;47.24;96806.47;4824602;28;104355;-80
2021/01/22 06:36:14;;;;;;;;;4.00;3.00;;;;;13.53;47.24;96814.38;4827170;28;102833;-80
2021/01/22 06:38:41;;;;;;;;;2.75;2.50;;;;;13.52;47.15;96807.28;4813785;28;104276;-78
2021/01/22 06:41:09;;;;;;;;;4.50;3.00;;;;;13.52;46.69;96815.44;4814061;28;103063;-78
2021/01/22 06:43:39;;;;;;;;;3.25;3.00;;;;;13.52;46.54;96813.53;4824478;28;102785;-78
2021/01/22 06:46:16;;;;;;;;;5.50;4.00;;;;;13.51;46.12;96816.53;4825728;28;102963;-78
2021/01/22 06:48:51;;;;;;;;;3.00;3.00;;;;;13.51;46.15;96827.41;4824292;28;103929;-78
2021/01/22 06:51:18;;;;;;;;;3.50;2.75;;;;;13.51;46.34;96824.69;4819259;28;103097;-78
2021/01/22 06:54:07;;;;;;;;;3.00;3.00;;;;;13.49;45.90;96824.13;4829961;28;102747;-78
2021/01/22 06:56:57;;;;;;;;;5.25;4.00;;;;;13.49;46.52;96826.84;4824759;28;102932;-78
2021/01/22 06:59:29;;;;;;;;;5.00;4.00;;;;;13.48;46.65;96828.72;4821941;28;104053;-76
2021/01/22 07:01:58;;;;;;;;;7.75;3.00;;;;;13.46;46.43;96832.81;4828384;28;103929;-78
2021/01/22 07:04:30;;;;;;;;;4.00;2.75;;;;;13.46;46.56;96821.94;4825953;28;103048;-76
2021/01/22 07:07:03;;;;;;;;;3.25;2.50;;;;;13.47;45.68;96824.38;4828923;28;103023;-76
2021/01/22 07:09:40;;;;;;;;;3.00;3.00;;;;;13.47;45.66;96823.53;4819642;28;109153;-76
2021/01/22 07:12:08;;;;;;;;;2.75;2.00;;;;;13.46;45.91;96820.03;4817016;28;104171;-76
2021/01/22 07:14:44;;;;;;;;;2.50;2.50;;;;;13.45;45.59;96815.69;4824040;28;103285;-76
2021/01/22 07:17:30;;;;;;;;;2.00;2.00;;;;;13.46;46.17;96813.78;4843494;28;104329;-76
2021/01/22 07:20:04;;;;;;;;;3.75;2.00;;;;;13.45;45.36;96815.69;4833785;28;104590;-76
2021/01/22 07:22:32;;;;;;;;;4.00;2.00;;;;;13.44;46.10;96805.06;4826208;28;102879;-76
2021/01/22 07:25:03;;;;;;;;;3.00;2.50;;;;;13.43;45.74;96796.13;4813551;28;103650;-76
2021/01/22 07:27:46;;;;;;;;;3.00;3.00;;;;;13.43;45.34;96795.28;4824085;28;103018;-76
2021/01/22 07:30:14;;;;;;;;;2.75;2.00;;;;;13.44;45.78;96799.66;4761106;28;109770;-76
2021/01/22 07:32:41;;;;;;;;;4.00;2.00;;;;;13.44;45.09;96799.66;4831184;28;102790;-76
2021/01/22 07:35:20;;;;;;;;;2.00;2.00;;;;;13.42;45.42;96789.03;4829022;28;102794;-76
2021/01/22 07:37:48;;;;;;;;;3.75;3.00;;;;;13.42;45.65;96804.53;4823165;28;103011;-76
2021/01/22 07:40:46;;;;;;;;;2.25;2.00;;;;;13.42;45.44;96807.25;4825964;28;104945;-76
2021/01/22 07:43:13;;;;;;;;;2.75;2.25;;;;;13.40;45.03;96808.31;4759112;28;102677;-76
2021/01/22 07:45:40;;;;;;;;;4.25;3.00;;;;;13.40;45.42;96811.03;4825862;28;105613;-75
2021/01/22 07:48:08;;;;;;;;;3.75;3.00;;;;;13.39;45.10;96809.41;4831280;28;103041;-76
2021/01/22 07:50:35;;;;;;;;;3.00;3.00;;;;;13.39;45.58;96811.28;4823491;28;104580;-76
2021/01/22 07:53:02;;;;;;;;;3.00;2.75;;;;;13.37;45.73;96805.31;4830339;28;102773;-76
2021/01/22 07:55:28;;;;;;;;;2.00;2.00;;;;;13.38;45.92;96820.50;4825900;28;102714;-76
2021/01/22 07:58:03;;;;;;;;;4.25;3.75;;;;;13.37;45.37;96806.13;4831208;28;104663;-76
2021/01/22 08:00:38;;;;;;;;;2.75;2.00;;;;;13.38;45.02;96801.50;4829834;28;103676;-76
2021/01/22 08:03:06;;;;;;;;;3.00;3.00;;;;;13.37;45.38;96789.03;4840569;28;105155;-76
2021/01/22 08:05:36;;;;;;;;;2.50;2.00;;;;;13.37;45.29;96787.13;4821382;28;102979;-76
2021/01/22 08:08:20;;;;;;;;;3.50;2.00;;;;;13.38;45.66;96796.06;4826316;28;102840;-76
2021/01/22 08:10:47;;;;;;;;;3.75;2.00;;;;;13.37;44.68;96792.53;4762444;28;109324;-75
2021/01/22 08:13:17;;;;;;;;;3.00;2.25;;;;;13.38;45.28;96796.06;4822660;28;102950;-76
2021/01/22 08:15:44;;;;;;;;;2.75;2.00;;;;;13.37;45.31;96792.53;4817006;28;102918;-76
2021/01/22 08:18:15;;;;;;;;;4.00;3.00;;;;;13.36;45.44;96799.06;4831868;28;104042;-76
2021/01/22 08:20:51;;;;;;;;;4.00;3.00;;;;;13.35;45.68;96796.63;4829570;28;104887;-76
2021/01/22 08:23:20;;;;;;;;;2.00;2.00;;;;;13.36;45.12;96803.69;4828483;28;102949;-76
2021/01/22 08:25:47;;;;;;;;;4.00;3.00;;;;;13.35;45.06;96808.28;4848433;28;102883;-76
2021/01/22 08:28:13;;;;;;;;;2.50;2.00;;;;;13.35;45.70;96823.75;4834512;28;102821;-76
2021/01/22 08:30:40;;;;;;;;;3.50;2.75;;;;;13.34;45.31;96833.81;4827528;28;104088;-76
2021/01/22 08:33:07;;;;;;;;;3.50;3.00;;;;;13.35;44.57;96840.06;4828074;28;103037;-77
2021/01/22 08:35:34;;;;;;;;;3.25;3.00;;;;;13.34;45.10;96841.94;4839486;28;102868;-76
2021/01/22 08:38:01;;;;;;;;;3.75;2.75;;;;;13.35;45.73;96848.19;4828095;28;103063;-76
2021/01/22 08:40:43;;;;;;;;;4.25;4.00;;;;;13.35;44.92;96840.88;4810402;28;104206;-76
2021/01/22 08:43:12;;;;;;;;;2.00;2.00;;;;;13.34;45.55;96844.66;4830124;28;105030;-76
2021/01/22 08:45:42;;;;;;;;;4.00;4.00;;;;;13.35;45.50;96843.59;4834164;28;103230;-76
2021/01/22 08:48:09;;;;;;;;;2.25;2.25;;;;;13.34;45.64;96844.66;4814092;28;103079;-76
2021/01/22 08:50:36;;;;;;;;;3.00;3.00;;;;;13.34;44.83;96852.81;4835747;28;103901;-76
2021/01/22 08:53:06;;;;;;;;;2.00;2.00;;;;;13.34;45.65;96855.50;4842125;28;102837;-76
2021/01/22 08:55:33;;;;;;;;;2.25;2.25;;;;;13.34;44.85;96860.94;4815529;28;102935;-76
2021/01/22 08:58:04;;;;;;;;;3.00;2.75;;;;;13.34;45.51;96847.38;4836018;28;103028;-76
2021/01/22 09:00:31;;;;;;;;;5.75;3.00;;;;;13.35;44.92;96846.31;4830052;28;105960;-76
2021/01/22 09:02:58;;;;;;;;;3.00;3.00;;;;;13.35;44.84;96861.75;4817769;28;102881;-76
2021/01/22 09:05:25;;;;;;;;;3.50;2.00;;;;;13.35;45.26;96861.75;4826784;28;102972;-76
2021/01/22 09:08:16;;;;;;;;;4.00;3.00;;;;;13.36;45.00;96857.97;4819935;28;102974;-76
2021/01/22 09:10:49;;;;;;;;;3.00;2.75;;;;;13.36;45.33;96860.69;4747615;28;110160;-76
2021/01/22 09:13:17;;;;;;;;;2.75;2.75;;;;;13.36;44.35;96847.94;4826796;28;103327;-76
2021/01/22 09:15:44;;;;;;;;;2.00;2.00;;;;;13.35;44.99;96846.31;4808121;28;103020;-76
2021/01/22 09:18:24;;;;;;;;;2.50;2.25;;;;;13.33;44.55;96837.59;4832747;28;102929;-76
2021/01/22 09:20:58;;;;;;;;;3.00;2.00;;;;;13.36;44.31;96849.84;4779756;28;104079;-76
2021/01/22 09:23:25;;;;;;;;;2.00;2.00;;;;;13.35;45.19;96842.75;4816564;28;103431;-76
2021/01/22 09:25:52;;;;;;;;;2.50;2.00;;;;;13.34;45.20;96838.41;4771673;28;102738;-76
2021/01/22 09:28:19;;;;;;;;;3.00;2.25;;;;;13.34;45.04;96828.38;4828420;28;104485;-76
2021/01/22 09:30:46;;;;;;;;;3.00;3.00;;;;;13.34;45.01;96825.66;4826595;28;104529;-76
2021/01/22 09:33:14;;;;;;;;;3.00;2.75;;;;;13.34;44.33;96817.50;4827040;28;103022;-76
2021/01/22 09:35:41;;;;;;;;;2.00;2.00;;;;;13.34;45.00;96812.09;4835655;28;103131;-76
2021/01/22 09:38:08;;;;;;;;;5.25;3.75;;;;;13.33;44.21;96824.00;4830125;28;102889;-76
2021/01/22 09:40:35;;;;;;;;;2.25;2.00;;;;;13.34;44.75;96819.41;4830538;28;109849;-76
2021/01/22 09:43:02;;;;;;;;;2.25;2.25;;;;;13.34;44.40;96811.25;4824502;28;102873;-76
2021/01/22 09:45:29;;;;;;;;;2.50;2.50;;;;;13.33;44.90;96815.88;4836719;28;102857;-75
2021/01/22 09:47:56;;;;;;;;;2.00;2.00;;;;;13.34;45.11;96814.78;4835357;28;104412;-76
2021/01/22 09:50:23;;;;;;;;;5.50;3.00;;;;;13.34;44.76;96822.13;4831112;28;104083;-76
2021/01/22 09:52:50;;;;;;;;;2.25;2.25;;;;;13.33;44.23;96818.59;4833188;28;102910;-76
2021/01/22 09:55:18;;;;;;;;;2.50;2.00;;;;;13.34;44.90;96812.09;4827944;28;103112;-76
2021/01/22 09:57:45;;;;;;;;;2.00;2.00;;;;;13.34;44.04;96816.69;4831377;28;103166;-76
2021/01/22 10:00:14;;;;;;;;;3.00;3.00;;;;;13.34;44.08;96812.09;4831784;28;104159;-76
2021/01/22 10:02:42;;;;;;;;;5.75;2.00;;;;;13.34;44.55;96803.94;4830758;28;102836;-76
2021/01/22 10:05:09;;;;;;;;;2.00;2.00;;;;;13.36;45.19;96804.50;4838898;28;103957;-76
2021/01/22 10:07:36;;;;;;;;;2.00;2.00;;;;;13.36;44.24;96798.25;4836105;28;102885;-76
2021/01/22 10:10:04;;;;;;;;;1.75;1.75;;;;;13.33;44.75;96802.28;4832307;28;104400;-76
2021/01/22 10:12:30;;;;;;;;;6.00;4.00;;;;;13.36;45.19;96799.06;4816338;28;102866;-76
2021/01/22 10:14:57;;;;;;;;;4.50;3.00;;;;;13.37;45.04;96797.97;4831586;28;102893;-76
2021/01/22 10:17:24;;;;;;;;;4.00;3.00;;;;;13.37;44.17;96795.25;4834465;28;102838;-76
2021/01/22 10:19:51;;;;;;;;;2.00;2.00;;;;;13.38;44.56;96801.50;4832937;28;105381;-76
2021/01/22 10:22:17;;;;;;;;;3.50;3.00;;;;;13.39;44.53;96792.28;4830335;28;102842;-76
2021/01/22 10:24:44;;;;;;;;;2.75;2.75;;;;;13.39;44.56;96793.13;4837986;28;103023;-76
2021/01/22 10:27:11;;;;;;;;;3.75;3.00;;;;;13.40;44.34;96789.31;4828068;28;102940;-76
2021/01/22 10:29:38;;;;;;;;;2.25;2.25;;;;;13.40;44.85;96794.75;4834600;28;104116;-76
2021/01/22 10:32:04;;;;;;;;;4.00;3.50;;;;;13.42;44.29;96785.53;4836033;28;102827;-76
2021/01/22 10:34:31;;;;;;;;;2.00;2.00;;;;;13.42;44.97;96774.69;4823911;28;105955;-76
2021/01/22 10:36:58;;;;;;;;;2.00;2.00;;;;;13.42;45.01;96780.09;4832475;28;103030;-76
2021/01/22 10:39:25;;;;;;;;;4.25;2.00;;;;;13.44;43.99;96788.78;4834683;28;104050;-76
2021/01/22 10:41:52;;;;;;;;;5.25;3.50;;;;;13.43;44.42;96782.53;4833561;28;104051;-75
2021/01/22 10:44:19;;;;;;;;;3.75;2.50;;;;;13.43;44.12;96787.97;4822029;28;102857;-76
2021/01/22 10:46:45;;;;;;;;;3.25;2.00;;;;;13.43;44.01;96782.53;4834955;28;103008;-76
2021/01/22 10:49:12;;;;;;;;;3.00;3.00;;;;;13.43;44.12;96787.97;4831782;28;104027;-76
2021/01/22 10:51:39;;;;;;;;;2.50;2.50;;;;;13.43;44.89;96784.44;4838196;28;105745;-76
2021/01/22 10:54:06;;;;;;;;;2.50;2.25;;;;;13.43;44.08;96793.41;4827551;28;103050;-76
2021/01/22 10:56:33;;;;;;;;;2.50;1.50;;;;;13.44;44.66;96786.06;4832412;28;102950;-76
2021/01/22 10:59:01;;;;;;;;;2.00;2.00;;;;;13.43;44.86;96785.25;4834178;28;104256;-76
2021/01/22 11:01:28;;;;;;;;;3.00;2.00;;;;;13.44;44.89;96784.19;4830837;28;102667;-76
2021/01/22 11:03:55;;;;;;;;;2.00;2.00;;;;;13.45;44.73;96785.00;4835002;28;103128;-76
2021/01/22 11:06:22;;;;;;;;;3.00;2.25;;;;;13.41;44.38;96776.56;4832276;28;102953;-76
2021/01/22 11:08:49;;;;;;;;;2.00;2.00;;;;;13.44;44.34;96780.66;4828795;28;104051;-76
2021/01/22 11:11:15;;;;;;;;;3.75;3.00;;;;;13.43;44.13;96777.09;4838690;28;102706;-76
2021/01/22 11:13:42;;;;;;;;;1.00;1.00;;;;;13.43;44.10;96784.44;4834938;28;102838;-75
2021/01/22 11:16:09;;;;;;;;;3.50;3.00;;;;;13.44;44.67;96786.06;4837257;28;102872;-76
2021/01/22 11:18:35;;;;;;;;;2.25;2.00;;;;;13.43;43.88;96784.44;4835958;28;109197;-76
2021/01/22 11:21:02;;;;;;;;;1.00;1.00;;;;;13.43;43.70;96781.72;4834111;28;104969;-76
2021/01/22 11:23:29;;;;;;;;;2.00;2.00;;;;;13.44;43.72;96780.66;4831107;28;103536;-76
2021/01/22 11:25:56;;;;;;;;;2.00;2.00;;;;;13.44;43.79;96781.47;4833935;28;104896;-76
2021/01/22 11:28:23;;;;;;;;;2.00;2.00;;;;;13.44;44.78;96784.19;4829207;28;103854;-76
2021/01/22 11:30:50;;;;;;;;;3.00;2.00;;;;;13.44;44.12;96778.75;4836398;28;104560;-76
2021/01/22 11:33:16;;;;;;;;;2.00;2.00;;;;;13.45;44.55;96783.09;4829039;28;102983;-76